EDT,Max TemperatureF,Mean TemperatureF,Min TemperatureF,Max Dew PointF,MeanDew PointF,Min DewpointF,Max Humidity, Mean Humidity, Min Humidity, Max Sea Level PressureIn, Mean Sea Level PressureIn, Min Sea Level PressureIn, Max VisibilityMiles, Mean VisibilityMiles, Min VisibilityMiles, Max Wind SpeedMPH, Mean Wind SpeedMPH, Max Gust SpeedMPH,PrecipitationIn, CloudCover, Events, WindDirDegrees
2013-8-1,85,76,66,68,65,60,93,72,51,30.02,29.95,29.89,10,9,6,22,4,26,0.11,6,Rain,283
2013-8-2,85,75,64,63,60,57,93,67,40,30.05,30.01,29.96,10,10,10,14,5,17,0.00,1,,281
2013-8-3,87,76,64,64,62,60,87,67,47,30.04,30.00,29.95,10,10,10,13,4,18,0.00,4,,301
2013-8-4,85,76,66,66,59,52,87,60,32,30.09,30.01,29.96,10,10,10,17,6,23,0.00,3,,352
2013-8-5,80,71,61,63,58,55,84,67,50,30.14,30.08,30.03,10,10,10,15,5,21,0.00,6,,118
2013-8-6,84,76,68,70,65,62,93,76,58,30.07,30.02,29.99,10,10,10,16,5,20,0.00,7,,142
2013-8-7,82,76,70,71,69,67,90,82,74,30.12,30.06,30.04,10,10,6,13,6,,0.04,8,Rain,134
2013-8-8,84,78,72,72,71,69,93,79,65,30.09,30.05,30.02,10,8,1,14,3,17,0.26,7,Rain-Thunderstorm,137
2013-8-9,88,79,70,74,71,69,100,78,55,30.05,30.01,29.97,10,6,0,17,6,26,T,4,Fog-Rain,240
2013-8-10,91,82,72,71,69,67,87,67,47,30.10,30.06,30.03,10,10,10,15,6,22,T,3,,276
2013-8-11,89,80,71,73,70,67,93,72,50,30.16,30.09,30.03,10,10,1,30,4,33,0.47,5,Rain-Thunderstorm,224
2013-8-12,90,80,69,71,68,64,100,72,44,30.11,30.04,29.97,10,10,7,12,3,13,0.02,2,Rain,303
2013-8-13,83,76,69,71,66,60,93,76,58,29.96,29.88,29.82,10,10,7,21,6,25,0.03,5,Rain,268
2013-8-14,78,70,61,62,51,46,78,56,33,30.16,30.01,29.89,10,10,10,16,8,24,0.00,1,,339
2013-8-15,77,65,52,54,51,48,86,62,38,30.21,30.17,30.12,10,10,10,12,3,15,0.00,2,,89
2013-8-16,76,65,53,57,54,51,93,71,49,30.22,30.18,30.15,10,10,10,13,3,16,0.00,1,,124
2013-8-17,72,64,56,61,58,53,93,73,53,30.26,30.24,30.21,10,8,2,15,3,20,0.29,6,Rain,47
2013-8-18,71,67,62,64,62,60,93,83,73,30.27,30.23,30.19,10,8,2,10,4,12,0.47,8,Rain,71
2013-8-19,77,71,64,68,64,62,93,84,74,30.26,30.17,30.11,10,10,10,9,2,13,0.07,7,Rain,133
2013-8-20,83,75,66,69,66,64,100,79,58,30.25,30.18,30.13,10,8,0,12,4,16,0.00,5,Fog,76
2013-8-21,83,76,68,72,68,66,93,78,62,30.24,30.19,30.12,10,9,4,13,2,16,0.20,4,Rain-Thunderstorm,230
2013-8-22,87,76,65,67,65,62,90,68,45,30.16,30.10,30.03,10,10,9,16,5,20,T,2,,277
2013-8-23,85,75,64,67,65,60,90,71,51,30.16,30.05,29.97,10,10,7,25,5,32,T,4,,329
2013-8-24,81,70,58,61,57,54,100,72,43,30.35,30.27,30.17,10,10,9,10,4,16,0.00,1,,47
2013-8-25,84,71,57,60,56,53,100,70,39,30.44,30.37,30.32,10,10,10,12,3,16,0.00,2,,154
2013-8-26,80,68,57,63,58,55,93,69,36,30.35,30.24,30.12,10,10,10,8,1,,0.00,0,,275
2013-8-27,87,74,64,66,64,62,93,69,47,30.10,30.04,29.98,10,10,7,16,6,22,0.00,1,,276
2013-8-28,86,78,71,72,68,66,93,76,55,30.01,29.95,29.87,10,8,4,13,4,,0.09,3,Rain,258
2013-8-29,88,80,72,71,69,66,87,69,51,30.10,29.97,29.87,10,10,5,18,6,21,0.19,5,Rain,42
2013-8-30,85,77,68,68,67,66,97,78,58,30.12,30.03,29.94,10,8,4,10,3,13,T,5,,171
2013-8-31,88,78,68,69,67,64,97,73,48,29.96,29.92,29.88,10,9,2,25,4,36,0.31,3,Rain-Thunderstorm,226